sensor_id;sensor_type;location;lat;lon;timestamp;P1;durP1;ratioP1;P2;durP2;ratioP2
21941;SDS011;11135;54.192;15.670;2023-08-21T00:00:53;15.43;;;8.23;;
21941;SDS011;11135;54.192;15.670;2023-08-21T00:04:19;17.60;;;8.75;;
21941;SDS011;11135;54.192;15.670;2023-08-21T00:07:45;11.02;;;8.25;;
21941;SDS011;11135;54.192;15.670;2023-08-21T00:11:13;10.45;;;7.43;;
21941;SDS011;11135;54.192;15.670;2023-08-21T00:14:39;15.35;;;8.70;;
21941;SDS011;11135;54.192;15.670;2023-08-21T00:18:09;19.15;;;8.68;;
21941;SDS011;11135;54.192;15.670;2023-08-21T00:21:34;19.00;;;8.02;;
21941;SDS011;11135;54.192;15.670;2023-08-21T00:25:01;19.17;;;8.35;;
21941;SDS011;11135;54.192;15.670;2023-08-21T00:28:26;16.17;;;8.95;;
21941;SDS011;11135;54.192;15.670;2023-08-21T00:31:56;13.30;;;8.32;;
21941;SDS011;11135;54.192;15.670;2023-08-21T00:35:24;11.98;;;6.93;;
21941;SDS011;11135;54.192;15.670;2023-08-21T00:38:50;9.88;;;7.10;;
21941;SDS011;11135;54.192;15.670;2023-08-21T00:42:16;15.68;;;8.13;;
21941;SDS011;11135;54.192;15.670;2023-08-21T00:45:42;12.32;;;6.57;;
21941;SDS011;11135;54.192;15.670;2023-08-21T00:49:09;10.20;;;6.85;;
21941;SDS011;11135;54.192;15.670;2023-08-21T00:52:39;15.10;;;7.88;;
21941;SDS011;11135;54.192;15.670;2023-08-21T00:56:08;11.68;;;6.55;;
21941;SDS011;11135;54.192;15.670;2023-08-21T00:59:37;12.10;;;7.05;;
21941;SDS011;11135;54.192;15.670;2023-08-21T01:03:04;14.65;;;6.88;;
21941;SDS011;11135;54.192;15.670;2023-08-21T01:06:30;10.20;;;6.03;;
21941;SDS011;11135;54.192;15.670;2023-08-21T01:10:01;9.27;;;6.50;;
21941;SDS011;11135;54.192;15.670;2023-08-21T01:13:32;11.38;;;6.43;;
21941;SDS011;11135;54.192;15.670;2023-08-21T01:17:00;11.82;;;7.47;;
21941;SDS011;11135;54.192;15.670;2023-08-21T01:20:31;11.85;;;7.13;;
21941;SDS011;11135;54.192;15.670;2023-08-21T01:24:02;13.23;;;6.80;;
21941;SDS011;11135;54.192;15.670;2023-08-21T01:27:28;10.77;;;7.40;;
21941;SDS011;11135;54.192;15.670;2023-08-21T01:30:56;10.52;;;6.20;;
21941;SDS011;11135;54.192;15.670;2023-08-21T01:34:24;16.15;;;6.93;;
21941;SDS011;11135;54.192;15.670;2023-08-21T01:37:52;12.88;;;7.45;;
21941;SDS011;11135;54.192;15.670;2023-08-21T01:41:21;10.73;;;6.88;;
21941;SDS011;11135;54.192;15.670;2023-08-21T01:44:48;15.48;;;7.18;;
21941;SDS011;11135;54.192;15.670;2023-08-21T01:48:15;13.57;;;8.63;;
21941;SDS011;11135;54.192;15.670;2023-08-21T01:51:41;14.07;;;7.63;;
21941;SDS011;11135;54.192;15.670;2023-08-21T01:55:09;13.63;;;7.95;;
21941;SDS011;11135;54.192;15.670;2023-08-21T01:58:37;16.40;;;7.63;;
21941;SDS011;11135;54.192;15.670;2023-08-21T02:02:03;13.65;;;7.45;;
21941;SDS011;11135;54.192;15.670;2023-08-21T02:05:33;10.95;;;7.28;;
21941;SDS011;11135;54.192;15.670;2023-08-21T02:09:02;12.57;;;7.47;;
21941;SDS011;11135;54.192;15.670;2023-08-21T02:12:30;14.32;;;7.50;;
21941;SDS011;11135;54.192;15.670;2023-08-21T02:16:04;8.82;;;6.22;;
21941;SDS011;11135;54.192;15.670;2023-08-21T02:19:34;11.30;;;6.45;;
21941;SDS011;11135;54.192;15.670;2023-08-21T02:23:02;16.30;;;6.70;;
21941;SDS011;11135;54.192;15.670;2023-08-21T02:26:28;12.13;;;6.78;;
21941;SDS011;11135;54.192;15.670;2023-08-21T02:29:54;10.95;;;6.68;;
21941;SDS011;11135;54.192;15.670;2023-08-21T02:33:22;11.23;;;5.30;;
21941;SDS011;11135;54.192;15.670;2023-08-21T02:36:49;15.88;;;7.82;;
21941;SDS011;11135;54.192;15.670;2023-08-21T02:40:16;10.75;;;6.32;;
21941;SDS011;11135;54.192;15.670;2023-08-21T02:43:42;11.93;;;6.03;;
21941;SDS011;11135;54.192;15.670;2023-08-21T02:47:09;12.95;;;5.95;;
21941;SDS011;11135;54.192;15.670;2023-08-21T02:50:39;10.52;;;5.50;;
21941;SDS011;11135;54.192;15.670;2023-08-21T02:54:07;12.30;;;6.32;;
21941;SDS011;11135;54.192;15.670;2023-08-21T02:57:33;9.32;;;5.95;;
21941;SDS011;11135;54.192;15.670;2023-08-21T03:00:59;8.52;;;5.38;;
21941;SDS011;11135;54.192;15.670;2023-08-21T03:04:25;10.30;;;6.47;;
21941;SDS011;11135;54.192;15.670;2023-08-21T03:07:54;10.52;;;5.95;;
21941;SDS011;11135;54.192;15.670;2023-08-21T03:11:22;10.82;;;6.25;;
21941;SDS011;11135;54.192;15.670;2023-08-21T03:14:50;11.25;;;4.82;;
21941;SDS011;11135;54.192;15.670;2023-08-21T03:18:16;10.45;;;5.60;;
21941;SDS011;11135;54.192;15.670;2023-08-21T03:21:42;9.73;;;5.78;;
21941;SDS011;11135;54.192;15.670;2023-08-21T03:25:12;11.25;;;5.80;;
21941;SDS011;11135;54.192;15.670;2023-08-21T03:28:38;11.63;;;6.47;;
21941;SDS011;11135;54.192;15.670;2023-08-21T03:32:04;8.23;;;5.35;;
21941;SDS011;11135;54.192;15.670;2023-08-21T03:35:30;9.02;;;5.30;;
21941;SDS011;11135;54.192;15.670;2023-08-21T03:38:56;11.82;;;5.45;;
21941;SDS011;11135;54.192;15.670;2023-08-21T03:42:27;8.82;;;5.13;;
21941;SDS011;11135;54.192;15.670;2023-08-21T03:45:53;10.60;;;5.53;;
21941;SDS011;11135;54.192;15.670;2023-08-21T03:49:20;12.73;;;5.20;;
21941;SDS011;11135;54.192;15.670;2023-08-21T03:52:52;9.35;;;5.75;;
21941;SDS011;11135;54.192;15.670;2023-08-21T03:56:20;13.52;;;6.43;;
21941;SDS011;11135;54.192;15.670;2023-08-21T03:59:50;8.32;;;5.25;;
21941;SDS011;11135;54.192;15.670;2023-08-21T04:03:17;12.85;;;6.97;;
21941;SDS011;11135;54.192;15.670;2023-08-21T04:06:44;8.18;;;5.10;;
21941;SDS011;11135;54.192;15.670;2023-08-21T04:10:09;9.93;;;5.22;;
21941;SDS011;11135;54.192;15.670;2023-08-21T04:13:37;10.02;;;6.13;;
21941;SDS011;11135;54.192;15.670;2023-08-21T04:17:07;10.55;;;5.75;;
21941;SDS011;11135;54.192;15.670;2023-08-21T04:20:35;11.25;;;5.70;;
21941;SDS011;11135;54.192;15.670;2023-08-21T04:24:02;13.18;;;6.00;;
21941;SDS011;11135;54.192;15.670;2023-08-21T04:27:28;11.20;;;5.75;;
21941;SDS011;11135;54.192;15.670;2023-08-21T04:30:57;11.13;;;5.32;;
21941;SDS011;11135;54.192;15.670;2023-08-21T04:34:27;9.63;;;5.80;;
21941;SDS011;11135;54.192;15.670;2023-08-21T04:37:53;8.75;;;5.32;;
21941;SDS011;11135;54.192;15.670;2023-08-21T04:41:21;9.75;;;4.70;;
21941;SDS011;11135;54.192;15.670;2023-08-21T04:44:47;11.07;;;5.90;;
21941;SDS011;11135;54.192;15.670;2023-08-21T04:48:13;15.93;;;5.32;;
21941;SDS011;11135;54.192;15.670;2023-08-21T04:51:44;12.75;;;5.93;;
21941;SDS011;11135;54.192;15.670;2023-08-21T04:55:10;9.13;;;5.38;;
21941;SDS011;11135;54.192;15.670;2023-08-21T04:58:36;11.63;;;5.90;;
21941;SDS011;11135;54.192;15.670;2023-08-21T05:02:02;9.90;;;5.28;;
21941;SDS011;11135;54.192;15.670;2023-08-21T05:05:28;9.90;;;4.75;;
21941;SDS011;11135;54.192;15.670;2023-08-21T05:08:57;12.18;;;5.85;;
21941;SDS011;11135;54.192;15.670;2023-08-21T05:12:22;9.15;;;4.50;;
21941;SDS011;11135;54.192;15.670;2023-08-21T05:15:51;9.73;;;5.50;;
21941;SDS011;11135;54.192;15.670;2023-08-21T05:19:17;10.80;;;5.22;;
21941;SDS011;11135;54.192;15.670;2023-08-21T05:22:43;13.15;;;5.18;;
21941;SDS011;11135;54.192;15.670;2023-08-21T05:26:12;9.55;;;5.75;;
21941;SDS011;11135;54.192;15.670;2023-08-21T05:29:38;9.80;;;5.05;;
21941;SDS011;11135;54.192;15.670;2023-08-21T05:33:05;8.98;;;5.57;;
21941;SDS011;11135;54.192;15.670;2023-08-21T05:36:31;11.50;;;5.70;;
21941;SDS011;11135;54.192;15.670;2023-08-21T05:39:58;8.70;;;5.03;;
21941;SDS011;11135;54.192;15.670;2023-08-21T05:43:33;9.55;;;4.53;;
21941;SDS011;11135;54.192;15.670;2023-08-21T05:47:01;10.73;;;5.38;;
21941;SDS011;11135;54.192;15.670;2023-08-21T05:50:27;9.38;;;5.03;;
21941;SDS011;11135;54.192;15.670;2023-08-21T05:53:54;9.10;;;5.00;;
21941;SDS011;11135;54.192;15.670;2023-08-21T05:57:20;9.70;;;4.40;;
21941;SDS011;11135;54.192;15.670;2023-08-21T06:00:49;7.75;;;4.32;;
21941;SDS011;11135;54.192;15.670;2023-08-21T06:04:15;9.93;;;5.00;;
21941;SDS011;11135;54.192;15.670;2023-08-21T06:07:41;10.00;;;5.28;;
21941;SDS011;11135;54.192;15.670;2023-08-21T06:11:07;9.15;;;4.10;;
21941;SDS011;11135;54.192;15.670;2023-08-21T06:14:33;13.00;;;4.97;;
21941;SDS011;11135;54.192;15.670;2023-08-21T06:18:02;6.82;;;3.97;;
21941;SDS011;11135;54.192;15.670;2023-08-21T06:21:28;7.53;;;3.83;;
21941;SDS011;11135;54.192;15.670;2023-08-21T06:24:56;6.40;;;4.43;;
21941;SDS011;11135;54.192;15.670;2023-08-21T06:28:27;10.20;;;4.30;;
21941;SDS011;11135;54.192;15.670;2023-08-21T06:31:53;7.45;;;4.18;;
21941;SDS011;11135;54.192;15.670;2023-08-21T06:35:22;8.13;;;3.97;;
21941;SDS011;11135;54.192;15.670;2023-08-21T06:38:49;10.02;;;4.00;;
21941;SDS011;11135;54.192;15.670;2023-08-21T06:42:15;6.55;;;4.03;;
21941;SDS011;11135;54.192;15.670;2023-08-21T06:45:41;12.18;;;4.63;;
21941;SDS011;11135;54.192;15.670;2023-08-21T06:49:07;6.30;;;3.75;;
21941;SDS011;11135;54.192;15.670;2023-08-21T06:52:36;6.30;;;3.70;;
21941;SDS011;11135;54.192;15.670;2023-08-21T06:56:02;8.95;;;3.83;;
21941;SDS011;11135;54.192;15.670;2023-08-21T06:59:28;5.63;;;3.60;;
21941;SDS011;11135;54.192;15.670;2023-08-21T07:02:58;5.35;;;2.80;;
21941;SDS011;11135;54.192;15.670;2023-08-21T07:06:27;6.60;;;3.63;;
21941;SDS011;11135;54.192;15.670;2023-08-21T07:09:55;6.10;;;3.10;;
21941;SDS011;11135;54.192;15.670;2023-08-21T07:13:22;6.60;;;3.28;;
21941;SDS011;11135;54.192;15.670;2023-08-21T07:16:49;10.25;;;3.70;;
21941;SDS011;11135;54.192;15.670;2023-08-21T07:20:15;6.60;;;3.08;;
21941;SDS011;11135;54.192;15.670;2023-08-21T07:23:41;9.55;;;4.30;;
21941;SDS011;11135;54.192;15.670;2023-08-21T07:27:10;7.90;;;3.67;;
21941;SDS011;11135;54.192;15.670;2023-08-21T07:30:36;6.72;;;3.67;;
21941;SDS011;11135;54.192;15.670;2023-08-21T07:34:02;8.63;;;2.97;;
21941;SDS011;11135;54.192;15.670;2023-08-21T07:37:28;8.23;;;3.30;;
21941;SDS011;11135;54.192;15.670;2023-08-21T07:41:01;6.82;;;3.10;;
21941;SDS011;11135;54.192;15.670;2023-08-21T07:44:30;6.95;;;3.47;;
21941;SDS011;11135;54.192;15.670;2023-08-21T07:47:56;6.38;;;3.00;;
21941;SDS011;11135;54.192;15.670;2023-08-21T07:51:36;8.07;;;2.50;;
21941;SDS011;11135;54.192;15.670;2023-08-21T07:55:02;6.55;;;3.00;;
21941;SDS011;11135;54.192;15.670;2023-08-21T07:58:28;7.90;;;2.80;;
21941;SDS011;11135;54.192;15.670;2023-08-21T08:01:57;6.45;;;2.90;;
21941;SDS011;11135;54.192;15.670;2023-08-21T08:05:22;6.03;;;2.60;;
21941;SDS011;11135;54.192;15.670;2023-08-21T08:08:50;11.05;;;2.38;;
21941;SDS011;11135;54.192;15.670;2023-08-21T08:12:16;6.53;;;2.13;;
21941;SDS011;11135;54.192;15.670;2023-08-21T08:15:44;8.90;;;2.17;;
21941;SDS011;11135;54.192;15.670;2023-08-21T08:19:12;4.03;;;2.28;;
21941;SDS011;11135;54.192;15.670;2023-08-21T08:22:39;10.27;;;2.30;;
21941;SDS011;11135;54.192;15.670;2023-08-21T08:26:04;6.10;;;2.40;;
21941;SDS011;11135;54.192;15.670;2023-08-21T08:29:31;6.30;;;2.45;;
21941;SDS011;11135;54.192;15.670;2023-08-21T08:32:57;8.00;;;2.40;;
21941;SDS011;11135;54.192;15.670;2023-08-21T08:36:27;6.60;;;2.42;;
21941;SDS011;11135;54.192;15.670;2023-08-21T08:39:55;6.20;;;2.38;;
21941;SDS011;11135;54.192;15.670;2023-08-21T08:43:21;5.07;;;2.20;;
21941;SDS011;11135;54.192;15.670;2023-08-21T08:46:48;5.32;;;2.35;;
21941;SDS011;11135;54.192;15.670;2023-08-21T08:50:16;6.90;;;2.15;;
21941;SDS011;11135;54.192;15.670;2023-08-21T08:53:45;4.65;;;2.03;;
21941;SDS011;11135;54.192;15.670;2023-08-21T08:57:13;5.68;;;2.13;;
21941;SDS011;11135;54.192;15.670;2023-08-21T09:00:39;7.00;;;2.85;;
21941;SDS011;11135;54.192;15.670;2023-08-21T09:04:06;5.72;;;2.70;;
21941;SDS011;11135;54.192;15.670;2023-08-21T09:07:41;6.95;;;2.60;;
21941;SDS011;11135;54.192;15.670;2023-08-21T09:11:10;7.80;;;2.60;;
21941;SDS011;11135;54.192;15.670;2023-08-21T09:14:39;4.25;;;1.85;;
21941;SDS011;11135;54.192;15.670;2023-08-21T09:18:07;7.78;;;2.20;;
21941;SDS011;11135;54.192;15.670;2023-08-21T09:21:33;5.35;;;2.53;;
21941;SDS011;11135;54.192;15.670;2023-08-21T09:25:01;3.42;;;2.08;;
21941;SDS011;11135;54.192;15.670;2023-08-21T09:28:32;6.22;;;2.17;;
21941;SDS011;11135;54.192;15.670;2023-08-21T09:32:07;5.75;;;2.20;;
21941;SDS011;11135;54.192;15.670;2023-08-21T09:35:33;3.63;;;1.73;;
21941;SDS011;11135;54.192;15.670;2023-08-21T09:39:00;7.75;;;1.95;;
21941;SDS011;11135;54.192;15.670;2023-08-21T09:42:26;3.90;;;2.08;;
21941;SDS011;11135;54.192;15.670;2023-08-21T09:45:58;5.85;;;2.60;;
21941;SDS011;11135;54.192;15.670;2023-08-21T09:49:26;5.60;;;2.40;;
21941;SDS011;11135;54.192;15.670;2023-08-21T09:52:52;7.25;;;3.20;;
21941;SDS011;11135;54.192;15.670;2023-08-21T09:56:20;7.43;;;2.30;;
21941;SDS011;11135;54.192;15.670;2023-08-21T09:59:50;5.53;;;2.53;;
21941;SDS011;11135;54.192;15.670;2023-08-21T10:03:20;5.95;;;2.80;;
21941;SDS011;11135;54.192;15.670;2023-08-21T10:06:50;7.07;;;2.90;;
21941;SDS011;11135;54.192;15.670;2023-08-21T10:10:19;7.35;;;3.00;;
21941;SDS011;11135;54.192;15.670;2023-08-21T10:13:46;7.78;;;2.72;;
21941;SDS011;11135;54.192;15.670;2023-08-21T10:17:13;4.97;;;2.45;;
21941;SDS011;11135;54.192;15.670;2023-08-21T10:20:45;5.50;;;2.85;;
21941;SDS011;11135;54.192;15.670;2023-08-21T10:24:12;5.28;;;2.70;;
21941;SDS011;11135;54.192;15.670;2023-08-21T10:27:40;5.30;;;2.53;;
21941;SDS011;11135;54.192;15.670;2023-08-21T10:35:00;5.07;;;2.50;;
21941;SDS011;11135;54.192;15.670;2023-08-21T10:38:31;7.85;;;2.53;;
21941;SDS011;11135;54.192;15.670;2023-08-21T10:41:58;5.65;;;2.20;;
21941;SDS011;11135;54.192;15.670;2023-08-21T10:45:26;5.50;;;2.72;;
21941;SDS011;11135;54.192;15.670;2023-08-21T10:48:53;10.48;;;2.38;;
21941;SDS011;11135;54.192;15.670;2023-08-21T10:52:20;6.55;;;2.20;;
21941;SDS011;11135;54.192;15.670;2023-08-21T10:55:55;3.55;;;2.05;;
21941;SDS011;11135;54.192;15.670;2023-08-21T10:59:21;9.27;;;2.42;;
21941;SDS011;11135;54.192;15.670;2023-08-21T11:02:50;7.55;;;2.58;;
21941;SDS011;11135;54.192;15.670;2023-08-21T11:06:18;7.55;;;2.42;;
21941;SDS011;11135;54.192;15.670;2023-08-21T11:09:45;6.35;;;2.47;;
21941;SDS011;11135;54.192;15.670;2023-08-21T11:13:14;7.90;;;2.55;;
21941;SDS011;11135;54.192;15.670;2023-08-21T11:16:40;6.95;;;2.33;;
21941;SDS011;11135;54.192;15.670;2023-08-21T11:20:07;6.15;;;2.47;;
21941;SDS011;11135;54.192;15.670;2023-08-21T11:23:34;4.72;;;2.05;;
21941;SDS011;11135;54.192;15.670;2023-08-21T11:27:01;8.45;;;2.33;;
21941;SDS011;11135;54.192;15.670;2023-08-21T11:30:30;5.72;;;2.13;;
21941;SDS011;11135;54.192;15.670;2023-08-21T11:34:00;9.10;;;2.25;;
21941;SDS011;11135;54.192;15.670;2023-08-21T11:37:46;6.15;;;2.28;;
21941;SDS011;11135;54.192;15.670;2023-08-21T11:41:12;6.85;;;2.13;;
21941;SDS011;11135;54.192;15.670;2023-08-21T11:44:43;9.50;;;2.20;;
21941;SDS011;11135;54.192;15.670;2023-08-21T11:48:12;9.48;;;2.63;;
21941;SDS011;11135;54.192;15.670;2023-08-21T11:51:38;8.25;;;3.15;;
21941;SDS011;11135;54.192;15.670;2023-08-21T11:55:09;9.65;;;3.10;;
21941;SDS011;11135;54.192;15.670;2023-08-21T11:58:38;8.80;;;3.55;;
21941;SDS011;11135;54.192;15.670;2023-08-21T12:02:13;8.27;;;3.13;;
21941;SDS011;11135;54.192;15.670;2023-08-21T12:05:45;7.97;;;2.80;;
21941;SDS011;11135;54.192;15.670;2023-08-21T12:09:12;8.80;;;3.20;;
21941;SDS011;11135;54.192;15.670;2023-08-21T12:12:39;8.27;;;3.60;;
21941;SDS011;11135;54.192;15.670;2023-08-21T12:16:05;7.65;;;3.13;;
21941;SDS011;11135;54.192;15.670;2023-08-21T12:19:31;9.93;;;4.03;;
21941;SDS011;11135;54.192;15.670;2023-08-21T12:23:00;7.47;;;4.38;;
21941;SDS011;11135;54.192;15.670;2023-08-21T12:26:26;8.90;;;4.20;;
21941;SDS011;11135;54.192;15.670;2023-08-21T12:30:10;10.20;;;3.88;;
21941;SDS011;11135;54.192;15.670;2023-08-21T12:33:38;8.73;;;3.70;;
21941;SDS011;11135;54.192;15.670;2023-08-21T12:37:06;6.63;;;3.50;;
21941;SDS011;11135;54.192;15.670;2023-08-21T12:40:35;7.35;;;3.92;;
21941;SDS011;11135;54.192;15.670;2023-08-21T12:44:06;10.40;;;4.68;;
21941;SDS011;11135;54.192;15.670;2023-08-21T12:47:32;6.40;;;3.47;;
21941;SDS011;11135;54.192;15.670;2023-08-21T12:51:01;9.77;;;3.92;;
21941;SDS011;11135;54.192;15.670;2023-08-21T12:54:28;8.25;;;3.70;;
21941;SDS011;11135;54.192;15.670;2023-08-21T12:57:56;8.25;;;3.50;;
21941;SDS011;11135;54.192;15.670;2023-08-21T13:01:23;10.68;;;3.75;;
21941;SDS011;11135;54.192;15.670;2023-08-21T13:04:49;8.50;;;3.42;;
21941;SDS011;11135;54.192;15.670;2023-08-21T13:08:16;9.27;;;3.47;;
21941;SDS011;11135;54.192;15.670;2023-08-21T13:11:43;11.02;;;3.38;;
21941;SDS011;11135;54.192;15.670;2023-08-21T13:15:14;6.88;;;3.55;;
21941;SDS011;11135;54.192;15.670;2023-08-21T13:18:41;10.73;;;2.85;;
21941;SDS011;11135;54.192;15.670;2023-08-21T13:22:07;9.38;;;3.65;;
21941;SDS011;11135;54.192;15.670;2023-08-21T13:25:34;9.80;;;4.60;;
21941;SDS011;11135;54.192;15.670;2023-08-21T13:29:00;12.70;;;4.70;;
21941;SDS011;11135;54.192;15.670;2023-08-21T13:32:30;11.52;;;4.90;;
21941;SDS011;11135;54.192;15.670;2023-08-21T13:35:56;11.23;;;4.07;;
21941;SDS011;11135;54.192;15.670;2023-08-21T13:39:25;9.88;;;4.28;;
21941;SDS011;11135;54.192;15.670;2023-08-21T13:42:55;8.90;;;4.30;;
21941;SDS011;11135;54.192;15.670;2023-08-21T13:46:26;9.05;;;4.03;;
21941;SDS011;11135;54.192;15.670;2023-08-21T13:49:58;7.30;;;3.53;;
21941;SDS011;11135;54.192;15.670;2023-08-21T13:53:24;10.70;;;3.80;;
21941;SDS011;11135;54.192;15.670;2023-08-21T13:56:51;9.73;;;4.38;;
21941;SDS011;11135;54.192;15.670;2023-08-21T14:00:21;7.68;;;3.92;;
21941;SDS011;11135;54.192;15.670;2023-08-21T14:03:48;9.00;;;3.40;;
21941;SDS011;11135;54.192;15.670;2023-08-21T14:07:17;6.85;;;3.40;;
21941;SDS011;11135;54.192;15.670;2023-08-21T14:10:43;12.05;;;3.95;;
21941;SDS011;11135;54.192;15.670;2023-08-21T14:14:09;9.75;;;3.70;;
21941;SDS011;11135;54.192;15.670;2023-08-21T14:17:35;6.95;;;3.30;;
21941;SDS011;11135;54.192;15.670;2023-08-21T14:21:02;8.13;;;3.20;;
21941;SDS011;11135;54.192;15.670;2023-08-21T14:24:32;7.63;;;3.70;;
21941;SDS011;11135;54.192;15.670;2023-08-21T14:27:57;9.52;;;4.03;;
21941;SDS011;11135;54.192;15.670;2023-08-21T14:31:26;8.43;;;3.90;;
21941;SDS011;11135;54.192;15.670;2023-08-21T14:34:54;8.30;;;4.38;;
21941;SDS011;11135;54.192;15.670;2023-08-21T14:38:21;11.00;;;4.82;;
21941;SDS011;11135;54.192;15.670;2023-08-21T14:41:52;10.32;;;3.90;;
21941;SDS011;11135;54.192;15.670;2023-08-21T14:48:44;9.60;;;3.60;;
21941;SDS011;11135;54.192;15.670;2023-08-21T14:52:11;11.90;;;4.10;;
21941;SDS011;11135;54.192;15.670;2023-08-21T14:55:38;9.13;;;3.97;;
21941;SDS011;11135;54.192;15.670;2023-08-21T14:59:08;11.30;;;4.18;;
21941;SDS011;11135;54.192;15.670;2023-08-21T15:02:36;9.57;;;3.30;;
21941;SDS011;11135;54.192;15.670;2023-08-21T15:06:04;7.90;;;3.22;;
21941;SDS011;11135;54.192;15.670;2023-08-21T15:09:32;8.15;;;3.60;;
21941;SDS011;11135;54.192;15.670;2023-08-21T15:13:00;7.78;;;3.17;;
21941;SDS011;11135;54.192;15.670;2023-08-21T15:16:29;6.68;;;2.90;;
21941;SDS011;11135;54.192;15.670;2023-08-21T15:19:56;6.07;;;3.20;;
21941;SDS011;11135;54.192;15.670;2023-08-21T15:23:23;7.03;;;3.00;;
21941;SDS011;11135;54.192;15.670;2023-08-21T15:26:51;6.93;;;2.50;;
21941;SDS011;11135;54.192;15.670;2023-08-21T15:30:19;8.98;;;2.55;;
21941;SDS011;11135;54.192;15.670;2023-08-21T15:33:48;5.63;;;2.47;;
21941;SDS011;11135;54.192;15.670;2023-08-21T15:37:15;7.30;;;2.25;;
21941;SDS011;11135;54.192;15.670;2023-08-21T15:40:43;5.55;;;2.53;;
21941;SDS011;11135;54.192;15.670;2023-08-21T15:44:08;5.93;;;2.00;;
21941;SDS011;11135;54.192;15.670;2023-08-21T15:47:35;6.35;;;2.58;;
21941;SDS011;11135;54.192;15.670;2023-08-21T15:51:13;6.32;;;2.30;;
21941;SDS011;11135;54.192;15.670;2023-08-21T15:54:40;5.63;;;2.25;;
21941;SDS011;11135;54.192;15.670;2023-08-21T15:58:06;3.42;;;1.77;;
21941;SDS011;11135;54.192;15.670;2023-08-21T16:01:33;6.80;;;2.40;;
21941;SDS011;11135;54.192;15.670;2023-08-21T16:04:58;6.65;;;2.40;;
21941;SDS011;11135;54.192;15.670;2023-08-21T16:08:29;5.05;;;2.13;;
21941;SDS011;11135;54.192;15.670;2023-08-21T16:11:55;6.75;;;2.10;;
21941;SDS011;11135;54.192;15.670;2023-08-21T16:15:21;7.32;;;2.28;;
21941;SDS011;11135;54.192;15.670;2023-08-21T16:18:50;5.22;;;2.22;;
21941;SDS011;11135;54.192;15.670;2023-08-21T16:22:16;6.50;;;2.17;;
21941;SDS011;11135;54.192;15.670;2023-08-21T16:25:44;4.90;;;1.98;;
21941;SDS011;11135;54.192;15.670;2023-08-21T16:29:11;4.20;;;1.88;;
21941;SDS011;11135;54.192;15.670;2023-08-21T16:32:39;4.50;;;2.00;;
21941;SDS011;11135;54.192;15.670;2023-08-21T16:36:06;6.95;;;2.08;;
21941;SDS011;11135;54.192;15.670;2023-08-21T16:39:32;5.55;;;2.30;;
21941;SDS011;11135;54.192;15.670;2023-08-21T16:43:02;4.60;;;2.20;;
21941;SDS011;11135;54.192;15.670;2023-08-21T16:46:28;5.85;;;2.53;;
21941;SDS011;11135;54.192;15.670;2023-08-21T16:49:55;4.25;;;2.00;;
21941;SDS011;11135;54.192;15.670;2023-08-21T16:53:24;8.02;;;3.00;;
21941;SDS011;11135;54.192;15.670;2023-08-21T16:56:52;7.30;;;2.42;;
21941;SDS011;11135;54.192;15.670;2023-08-21T17:00:20;6.00;;;2.10;;
21941;SDS011;11135;54.192;15.670;2023-08-21T17:03:46;5.13;;;1.98;;
21941;SDS011;11135;54.192;15.670;2023-08-21T17:07:12;4.88;;;2.05;;
21941;SDS011;11135;54.192;15.670;2023-08-21T17:10:41;6.05;;;2.33;;
21941;SDS011;11135;54.192;15.670;2023-08-21T17:14:07;6.78;;;2.10;;
21941;SDS011;11135;54.192;15.670;2023-08-21T17:17:35;6.82;;;2.25;;
21941;SDS011;11135;54.192;15.670;2023-08-21T17:21:02;6.57;;;2.17;;
21941;SDS011;11135;54.192;15.670;2023-08-21T17:24:30;5.18;;;2.17;;
21941;SDS011;11135;54.192;15.670;2023-08-21T17:27:55;5.57;;;2.35;;
21941;SDS011;11135;54.192;15.670;2023-08-21T17:31:24;7.30;;;2.60;;
21941;SDS011;11135;54.192;15.670;2023-08-21T17:34:53;4.78;;;2.60;;
21941;SDS011;11135;54.192;15.670;2023-08-21T17:38:21;5.97;;;2.50;;
21941;SDS011;11135;54.192;15.670;2023-08-21T17:41:48;8.77;;;2.10;;
21941;SDS011;11135;54.192;15.670;2023-08-21T17:45:14;5.70;;;2.45;;
21941;SDS011;11135;54.192;15.670;2023-08-21T17:48:40;4.82;;;1.98;;
21941;SDS011;11135;54.192;15.670;2023-08-21T17:52:12;8.93;;;2.17;;
21941;SDS011;11135;54.192;15.670;2023-08-21T17:55:38;5.78;;;2.30;;
21941;SDS011;11135;54.192;15.670;2023-08-21T17:59:04;4.15;;;1.90;;
21941;SDS011;11135;54.192;15.670;2023-08-21T18:02:30;5.70;;;2.35;;
21941;SDS011;11135;54.192;15.670;2023-08-21T18:05:56;5.80;;;2.30;;
21941;SDS011;11135;54.192;15.670;2023-08-21T18:09:24;4.80;;;2.03;;
21941;SDS011;11135;54.192;15.670;2023-08-21T18:12:56;3.83;;;1.70;;
21941;SDS011;11135;54.192;15.670;2023-08-21T18:16:23;7.32;;;1.95;;
21941;SDS011;11135;54.192;15.670;2023-08-21T18:19:52;4.63;;;1.92;;
21941;SDS011;11135;54.192;15.670;2023-08-21T18:23:19;5.75;;;2.38;;
21941;SDS011;11135;54.192;15.670;2023-08-21T18:26:50;4.95;;;2.30;;
21941;SDS011;11135;54.192;15.670;2023-08-21T18:30:18;4.72;;;2.10;;
21941;SDS011;11135;54.192;15.670;2023-08-21T18:33:46;6.75;;;2.47;;
21941;SDS011;11135;54.192;15.670;2023-08-21T18:37:13;5.82;;;2.45;;
21941;SDS011;11135;54.192;15.670;2023-08-21T18:40:42;3.45;;;2.50;;
21941;SDS011;11135;54.192;15.670;2023-08-21T18:44:11;7.30;;;2.50;;
21941;SDS011;11135;54.192;15.670;2023-08-21T18:47:37;6.47;;;2.10;;
21941;SDS011;11135;54.192;15.670;2023-08-21T18:51:03;7.65;;;3.30;;
21941;SDS011;11135;54.192;15.670;2023-08-21T18:54:30;5.15;;;2.42;;
21941;SDS011;11135;54.192;15.670;2023-08-21T18:58:01;5.68;;;2.63;;
21941;SDS011;11135;54.192;15.670;2023-08-21T19:01:30;8.60;;;2.47;;
21941;SDS011;11135;54.192;15.670;2023-08-21T19:05:00;5.22;;;2.42;;
21941;SDS011;11135;54.192;15.670;2023-08-21T19:08:28;7.13;;;2.70;;
21941;SDS011;11135;54.192;15.670;2023-08-21T19:11:54;6.72;;;2.50;;
21941;SDS011;11135;54.192;15.670;2023-08-21T19:15:20;6.43;;;2.97;;
21941;SDS011;11135;54.192;15.670;2023-08-21T19:18:51;6.72;;;2.70;;
21941;SDS011;11135;54.192;15.670;2023-08-21T19:22:17;5.10;;;2.55;;
21941;SDS011;11135;54.192;15.670;2023-08-21T19:25:44;7.90;;;2.70;;
21941;SDS011;11135;54.192;15.670;2023-08-21T19:29:11;11.90;;;3.10;;
21941;SDS011;11135;54.192;15.670;2023-08-21T19:32:41;4.57;;;2.35;;
21941;SDS011;11135;54.192;15.670;2023-08-21T19:39:48;8.77;;;2.92;;
21941;SDS011;11135;54.192;15.670;2023-08-21T19:43:18;7.55;;;2.78;;
21941;SDS011;11135;54.192;15.670;2023-08-21T19:46:45;6.40;;;2.90;;
21941;SDS011;11135;54.192;15.670;2023-08-21T19:50:11;5.38;;;2.45;;
21941;SDS011;11135;54.192;15.670;2023-08-21T19:53:42;6.10;;;2.88;;
21941;SDS011;11135;54.192;15.670;2023-08-21T19:57:11;9.75;;;2.90;;
21941;SDS011;11135;54.192;15.670;2023-08-21T20:00:40;7.53;;;3.50;;
21941;SDS011;11135;54.192;15.670;2023-08-21T20:04:08;9.27;;;3.42;;
21941;SDS011;11135;54.192;15.670;2023-08-21T20:07:36;10.55;;;3.10;;
21941;SDS011;11135;54.192;15.670;2023-08-21T20:11:03;9.02;;;3.38;;
21941;SDS011;11135;54.192;15.670;2023-08-21T20:14:32;10.23;;;3.45;;
21941;SDS011;11135;54.192;15.670;2023-08-21T20:17:59;5.47;;;2.90;;
21941;SDS011;11135;54.192;15.670;2023-08-21T20:21:25;8.73;;;3.15;;
21941;SDS011;11135;54.192;15.670;2023-08-21T20:24:53;7.28;;;3.10;;
21941;SDS011;11135;54.192;15.670;2023-08-21T20:28:19;8.43;;;2.67;;
21941;SDS011;11135;54.192;15.670;2023-08-21T20:31:49;8.38;;;3.08;;
21941;SDS011;11135;54.192;15.670;2023-08-21T20:35:16;6.95;;;3.33;;
21941;SDS011;11135;54.192;15.670;2023-08-21T20:38:42;7.55;;;3.22;;